Kaunas International Airport

Airport
ICAO code: 
EYKA
IATA Code: 
KUN
Summary
ICAO Region: 
EUR
Territory: 
Location: 
Karmėlava, Trakai
Serving: 
Kaunas
Elevation: 
256 ft
Coordinates: 
Aerial View: 
54° 57' 52.524" N, 24° 4' 29.748" E
Metar
Observation
EYKA 301720Z VRB01KT 9999 SCT014 OVC019 M04/M05 Q0989
Station
Kaunas
Date/Time
2021-11-30 17:20:00
Wind speed
01 kts
Lowest cloud amount
scattered clouds
Temperature
-4°C
Dew point
-5°C
Humidity
92%
QNH
989 hPa
Weather condition
n/a

Kaunas International Airport, Kaunas, Lithuania is the second busiest civil airport in Lithuania after Vilnius Airport.

Climatology

Humid continental climate (Köppen climate classification Dfb)

Runways

Designator Length Width Surface Rops
8/26 3150 45 ASP Yes/Yes
Airport map: 
Aerial View: 

SKYbrary Partners:

Safety knowledge contributed by: